LVCTT SAZB-SAVC
Flight info
| Callsign | LVCTT |
|---|---|
| Flight time | 1h 49m |
| Altitude | 24000 |
| Route | SANBU2C SANBU/N0305F260 UT693 TRE UP664 GATUD GATUD2U |
| Aircraft | B350/L-SBGRW/S |
Departure
| Time | 2026-05-07 20:29 |
|---|---|
| Airport | Comandante Espora Airport (SAZB) |
Arrival
| Time | 2026-05-07 22:18 |
|---|---|
| Airport | General Enrique Mosconi International Airport (SAVC) |
| Time | Latitude | Longitude | Altitude | Speed | Heading |
|---|---|---|---|---|---|
| 2026-05-07 20:17 | -38.71688 | -62.16285 | 253 ft | 0 kts | 320° |
| 2026-05-07 20:24 | -38.71664 | -62.16266 | 253 ft | 14 kts | 49° |
| 2026-05-07 20:24 | -38.71653 | -62.16113 | 253 ft | 20 kts | 97° |
| 2026-05-07 20:24 | -38.71595 | -62.15957 | 253 ft | 19 kts | 64° |
| 2026-05-07 20:25 | -38.71573 | -62.15896 | 254 ft | 0 kts | 62° |
| 2026-05-07 20:27 | -38.71567 | -62.15787 | 254 ft | 16 kts | 133° |
| 2026-05-07 20:27 | -38.71593 | -62.15767 | 254 ft | 0 kts | 161° |
| 2026-05-07 20:28 | -38.71658 | -62.15743 | 254 ft | 37 kts | 165° |
| 2026-05-07 20:28 | -38.72177 | -62.15547 | 254 ft | 111 kts | 163° |
| 2026-05-07 20:29 | -38.73057 | -62.15204 | 326 ft | 152 kts | 165° |
| 2026-05-07 20:29 | -38.74092 | -62.14738 | 922 ft | 150 kts | 162° |
| 2026-05-07 20:29 | -38.75026 | -62.14224 | 1676 ft | 148 kts | 158° |
| 2026-05-07 20:29 | -38.75850 | -62.13395 | 2323 ft | 149 kts | 158° |
| 2026-05-07 20:30 | -38.76792 | -62.13255 | 2990 ft | 135 kts | 192° |
| 2026-05-07 20:30 | -38.77725 | -62.13392 | 3635 ft | 135 kts | 191° |
| 2026-05-07 20:30 | -38.78631 | -62.13578 | 4295 ft | 131 kts | 208° |
| 2026-05-07 20:30 | -38.79384 | -62.14242 | 4949 ft | 130 kts | 215° |
| 2026-05-07 20:31 | -38.80170 | -62.14895 | 5480 ft | 137 kts | 212° |
| 2026-05-07 20:31 | -38.81006 | -62.15539 | 6009 ft | 143 kts | 210° |
| 2026-05-07 20:31 | -38.81869 | -62.16179 | 6534 ft | 147 kts | 210° |
| 2026-05-07 20:31 | -38.82766 | -62.16834 | 7064 ft | 150 kts | 210° |
| 2026-05-07 20:32 | -38.83684 | -62.17503 | 7593 ft | 153 kts | 210° |
| 2026-05-07 20:32 | -38.84620 | -62.18183 | 8120 ft | 156 kts | 210° |
| 2026-05-07 20:32 | -38.85576 | -62.18876 | 8647 ft | 159 kts | 210° |
| 2026-05-07 20:32 | -38.86544 | -62.19580 | 9171 ft | 161 kts | 210° |
| 2026-05-07 20:33 | -38.87529 | -62.20296 | 9697 ft | 164 kts | 210° |
| 2026-05-07 20:33 | -38.88530 | -62.21026 | 10220 ft | 167 kts | 210° |
| 2026-05-07 20:33 | -38.89546 | -62.21767 | 10743 ft | 169 kts | 211° |
| 2026-05-07 20:33 | -38.90585 | -62.22523 | 11202 ft | 176 kts | 211° |
| 2026-05-07 20:34 | -38.91678 | -62.23320 | 11574 ft | 186 kts | 211° |
| 2026-05-07 20:34 | -38.92832 | -62.24160 | 11931 ft | 196 kts | 211° |
| 2026-05-07 20:34 | -38.94035 | -62.25039 | 12288 ft | 202 kts | 211° |
| 2026-05-07 20:34 | -38.95276 | -62.25944 | 12647 ft | 207 kts | 212° |
| 2026-05-07 20:35 | -38.96543 | -62.26868 | 13003 ft | 212 kts | 211° |
| 2026-05-07 20:35 | -38.97841 | -62.27810 | 13361 ft | 216 kts | 212° |
| 2026-05-07 20:35 | -38.99153 | -62.28771 | 13716 ft | 219 kts | 212° |
| 2026-05-07 20:35 | -39.00489 | -62.29748 | 14067 ft | 222 kts | 212° |
| 2026-05-07 20:36 | -39.01843 | -62.30731 | 14425 ft | 224 kts | 212° |
| 2026-05-07 20:36 | -39.03184 | -62.31722 | 14773 ft | 227 kts | 212° |
| 2026-05-07 20:36 | -39.04566 | -62.32729 | 15122 ft | 230 kts | 212° |
| 2026-05-07 20:36 | -39.05964 | -62.33749 | 15478 ft | 232 kts | 212° |
| 2026-05-07 20:37 | -39.07376 | -62.34784 | 15831 ft | 234 kts | 213° |
| 2026-05-07 20:37 | -39.08797 | -62.35828 | 16176 ft | 236 kts | 213° |
| 2026-05-07 20:37 | -39.10231 | -62.36871 | 16533 ft | 237 kts | 213° |
| 2026-05-07 20:37 | -39.11668 | -62.37931 | 16884 ft | 239 kts | 213° |
| 2026-05-07 20:38 | -39.13113 | -62.38995 | 17234 ft | 240 kts | 213° |
| 2026-05-07 20:38 | -39.14568 | -62.40057 | 17583 ft | 241 kts | 213° |
| 2026-05-07 20:38 | -39.16032 | -62.41126 | 17933 ft | 242 kts | 214° |
| 2026-05-07 20:38 | -39.17494 | -62.42206 | 18281 ft | 243 kts | 214° |
| 2026-05-07 20:39 | -39.18966 | -62.43290 | 18628 ft | 244 kts | 213° |
| 2026-05-07 20:39 | -39.20444 | -62.44375 | 18975 ft | 245 kts | 213° |
| 2026-05-07 20:39 | -39.21928 | -62.45465 | 19322 ft | 246 kts | 214° |
| 2026-05-07 20:39 | -39.23418 | -62.46564 | 19671 ft | 246 kts | 214° |
| 2026-05-07 20:40 | -39.24910 | -62.47664 | 20019 ft | 247 kts | 214° |
| 2026-05-07 20:40 | -39.26401 | -62.48757 | 20367 ft | 246 kts | 214° |
| 2026-05-07 20:40 | -39.27892 | -62.49857 | 20715 ft | 246 kts | 214° |
| 2026-05-07 20:40 | -39.29364 | -62.50941 | 21059 ft | 248 kts | 214° |
| 2026-05-07 20:41 | -39.30863 | -62.52047 | 21408 ft | 249 kts | 215° |
| 2026-05-07 20:41 | -39.32376 | -62.53165 | 21759 ft | 250 kts | 215° |
| 2026-05-07 20:41 | -39.33885 | -62.54279 | 22108 ft | 250 kts | 215° |
| 2026-05-07 20:41 | -39.35395 | -62.55395 | 22457 ft | 250 kts | 215° |
| 2026-05-07 20:42 | -39.36906 | -62.56512 | 22807 ft | 249 kts | 216° |
| 2026-05-07 20:42 | -39.38413 | -62.57627 | 23154 ft | 249 kts | 216° |
| 2026-05-07 20:42 | -39.39913 | -62.58737 | 23504 ft | 248 kts | 216° |
| 2026-05-07 20:42 | -39.41418 | -62.59852 | 23732 ft | 254 kts | 216° |
| 2026-05-07 20:43 | -39.42986 | -62.61022 | 23736 ft | 266 kts | 216° |
| 2026-05-07 20:43 | -39.44606 | -62.62223 | 23745 ft | 276 kts | 215° |
| 2026-05-07 20:43 | -39.46298 | -62.63474 | 23751 ft | 284 kts | 215° |
| 2026-05-07 20:43 | -39.48030 | -62.64758 | 23751 ft | 290 kts | 215° |
| 2026-05-07 20:44 | -39.49800 | -62.66071 | 23751 ft | 295 kts | 214° |
| 2026-05-07 20:44 | -39.51619 | -62.67354 | 23750 ft | 300 kts | 212° |
| 2026-05-07 20:44 | -39.53472 | -62.68624 | 23749 ft | 302 kts | 213° |
| 2026-05-07 20:44 | -39.55334 | -62.69932 | 23749 ft | 305 kts | 213° |
| 2026-05-07 20:45 | -39.57209 | -62.71236 | 23738 ft | 306 kts | 213° |
| 2026-05-07 20:45 | -39.58458 | -62.72093 | 23740 ft | 307 kts | 212° |
| 2026-05-07 20:45 | -39.60346 | -62.73394 | 23738 ft | 308 kts | 213° |
| 2026-05-07 20:45 | -39.62238 | -62.74705 | 23739 ft | 309 kts | 213° |
| 2026-05-07 20:46 | -39.64134 | -62.76022 | 23740 ft | 309 kts | 212° |
| 2026-05-07 20:46 | -39.66655 | -62.77768 | 23738 ft | 310 kts | 212° |
| 2026-05-07 20:46 | -39.68556 | -62.79087 | 23739 ft | 310 kts | 212° |
| 2026-05-07 20:46 | -39.69841 | -62.79980 | 23738 ft | 310 kts | 212° |
| 2026-05-07 20:47 | -39.71746 | -62.81302 | 23738 ft | 310 kts | 212° |
| 2026-05-07 20:47 | -39.73650 | -62.82627 | 23738 ft | 311 kts | 212° |
| 2026-05-07 20:47 | -39.75556 | -62.83953 | 23740 ft | 311 kts | 212° |
| 2026-05-07 20:47 | -39.77466 | -62.85280 | 23740 ft | 311 kts | 212° |
| 2026-05-07 20:48 | -39.79371 | -62.86607 | 23739 ft | 311 kts | 212° |
| 2026-05-07 20:48 | -39.81278 | -62.87937 | 23740 ft | 311 kts | 212° |
| 2026-05-07 20:48 | -39.83189 | -62.89270 | 23739 ft | 311 kts | 212° |
| 2026-05-07 20:48 | -39.85095 | -62.90597 | 23740 ft | 312 kts | 212° |
| 2026-05-07 20:49 | -39.87004 | -62.91933 | 23739 ft | 311 kts | 212° |
| 2026-05-07 20:49 | -39.88912 | -62.93266 | 23739 ft | 311 kts | 212° |
| 2026-05-07 20:49 | -39.90821 | -62.94598 | 23740 ft | 311 kts | 212° |
| 2026-05-07 20:49 | -39.92729 | -62.95933 | 23732 ft | 311 kts | 212° |
| 2026-05-07 20:50 | -39.94615 | -62.97253 | 23727 ft | 312 kts | 212° |
| 2026-05-07 20:50 | -39.96522 | -62.98590 | 23734 ft | 312 kts | 212° |
| 2026-05-07 20:50 | -39.98434 | -62.99929 | 23727 ft | 312 kts | 212° |
| 2026-05-07 20:50 | -40.00342 | -63.01267 | 23733 ft | 312 kts | 212° |
| 2026-05-07 20:51 | -40.02253 | -63.02609 | 23727 ft | 311 kts | 211° |
| 2026-05-07 20:51 | -40.04165 | -63.03953 | 23733 ft | 313 kts | 210° |
| 2026-05-07 20:51 | -40.06082 | -63.05298 | 23729 ft | 313 kts | 210° |
| 2026-05-07 20:51 | -40.08000 | -63.06644 | 23732 ft | 313 kts | 210° |
| 2026-05-07 20:52 | -40.09919 | -63.07996 | 23726 ft | 313 kts | 210° |
| 2026-05-07 20:52 | -40.11842 | -63.09350 | 23726 ft | 314 kts | 210° |
| 2026-05-07 20:52 | -40.13763 | -63.10704 | 23726 ft | 314 kts | 210° |
| 2026-05-07 20:52 | -40.15688 | -63.12060 | 23736 ft | 314 kts | 210° |
| 2026-05-07 20:53 | -40.17613 | -63.13417 | 23733 ft | 314 kts | 210° |
| 2026-05-07 20:53 | -40.19537 | -63.14776 | 23728 ft | 314 kts | 210° |
| 2026-05-07 20:53 | -40.21433 | -63.16116 | 23729 ft | 314 kts | 210° |
| 2026-05-07 20:53 | -40.23353 | -63.17474 | 23729 ft | 313 kts | 210° |
| 2026-05-07 20:54 | -40.25270 | -63.18827 | 23734 ft | 313 kts | 210° |
| 2026-05-07 20:54 | -40.27179 | -63.20187 | 23728 ft | 311 kts | 210° |
| 2026-05-07 20:54 | -40.29098 | -63.21548 | 23727 ft | 314 kts | 211° |
| 2026-05-07 20:54 | -40.31023 | -63.22905 | 23728 ft | 314 kts | 210° |
| 2026-05-07 20:55 | -40.32949 | -63.24260 | 23733 ft | 314 kts | 210° |
| 2026-05-07 20:55 | -40.34870 | -63.25628 | 23725 ft | 314 kts | 210° |
| 2026-05-07 20:55 | -40.36791 | -63.26994 | 23733 ft | 312 kts | 210° |
| 2026-05-07 20:55 | -40.38697 | -63.28355 | 23725 ft | 309 kts | 210° |
| 2026-05-07 20:56 | -40.40589 | -63.29705 | 23715 ft | 310 kts | 210° |
| 2026-05-07 20:56 | -40.42499 | -63.31039 | 23714 ft | 312 kts | 210° |
| 2026-05-07 20:56 | -40.44403 | -63.32398 | 23713 ft | 312 kts | 210° |
| 2026-05-07 20:56 | -40.46314 | -63.33769 | 23713 ft | 313 kts | 210° |
| 2026-05-07 20:57 | -40.48225 | -63.35132 | 23713 ft | 313 kts | 210° |
| 2026-05-07 20:57 | -40.50144 | -63.36499 | 23713 ft | 314 kts | 210° |
| 2026-05-07 20:57 | -40.52064 | -63.37868 | 23721 ft | 314 kts | 210° |
| 2026-05-07 20:57 | -40.53983 | -63.39238 | 23713 ft | 314 kts | 210° |
| 2026-05-07 20:58 | -40.55906 | -63.40614 | 23713 ft | 315 kts | 210° |
| 2026-05-07 20:58 | -40.57832 | -63.41991 | 23720 ft | 315 kts | 210° |
| 2026-05-07 20:58 | -40.59759 | -63.43371 | 23714 ft | 316 kts | 210° |
| 2026-05-07 20:58 | -40.61686 | -63.44751 | 23721 ft | 316 kts | 210° |
| 2026-05-07 20:59 | -40.63619 | -63.46134 | 23715 ft | 316 kts | 210° |
| 2026-05-07 20:59 | -40.65550 | -63.47518 | 23715 ft | 316 kts | 210° |
| 2026-05-07 20:59 | -40.67451 | -63.48882 | 23715 ft | 316 kts | 210° |
| 2026-05-07 20:59 | -40.69381 | -63.50268 | 23715 ft | 316 kts | 210° |
| 2026-05-07 21:00 | -40.71314 | -63.51657 | 23715 ft | 317 kts | 210° |
| 2026-05-07 21:00 | -40.73248 | -63.53046 | 23716 ft | 317 kts | 210° |
| 2026-05-07 21:00 | -40.75186 | -63.54442 | 23716 ft | 317 kts | 210° |
| 2026-05-07 21:00 | -40.77126 | -63.55834 | 23716 ft | 317 kts | 210° |
| 2026-05-07 21:01 | -40.79063 | -63.57232 | 23716 ft | 317 kts | 210° |
| 2026-05-07 21:01 | -40.80998 | -63.58628 | 23716 ft | 317 kts | 210° |
| 2026-05-07 21:01 | -40.82938 | -63.60026 | 23722 ft | 317 kts | 210° |
| 2026-05-07 21:01 | -40.84873 | -63.61425 | 23719 ft | 317 kts | 210° |
| 2026-05-07 21:02 | -40.86808 | -63.62820 | 23716 ft | 317 kts | 210° |
| 2026-05-07 21:02 | -40.88744 | -63.64219 | 23716 ft | 317 kts | 210° |
| 2026-05-07 21:02 | -40.90681 | -63.65621 | 23722 ft | 318 kts | 210° |
| 2026-05-07 21:02 | -40.92653 | -63.66940 | 23715 ft | 318 kts | 207° |
| 2026-05-07 21:03 | -40.94638 | -63.68234 | 23723 ft | 318 kts | 208° |
| 2026-05-07 21:03 | -40.96614 | -63.69547 | 23716 ft | 318 kts | 208° |
| 2026-05-07 21:03 | -40.98596 | -63.70856 | 23723 ft | 319 kts | 207° |
| 2026-05-07 21:03 | -41.00559 | -63.72139 | 23716 ft | 319 kts | 207° |
| 2026-05-07 21:04 | -41.02550 | -63.73448 | 23716 ft | 319 kts | 207° |
| 2026-05-07 21:04 | -41.04539 | -63.74760 | 23720 ft | 319 kts | 207° |
| 2026-05-07 21:04 | -41.06531 | -63.76074 | 23716 ft | 319 kts | 207° |
| 2026-05-07 21:04 | -41.08521 | -63.77385 | 23716 ft | 320 kts | 208° |
| 2026-05-07 21:05 | -41.10513 | -63.78700 | 23722 ft | 320 kts | 207° |
| 2026-05-07 21:05 | -41.12509 | -63.80016 | 23722 ft | 320 kts | 207° |
| 2026-05-07 21:05 | -41.14504 | -63.81334 | 23717 ft | 320 kts | 208° |
| 2026-05-07 21:05 | -41.16496 | -63.82652 | 23722 ft | 320 kts | 208° |
| 2026-05-07 21:06 | -41.18466 | -63.83958 | 23722 ft | 320 kts | 207° |
| 2026-05-07 21:06 | -41.20461 | -63.85276 | 23720 ft | 320 kts | 207° |
| 2026-05-07 21:06 | -41.22457 | -63.86597 | 23722 ft | 321 kts | 208° |
| 2026-05-07 21:06 | -41.24452 | -63.87918 | 23721 ft | 321 kts | 208° |
| 2026-05-07 21:07 | -41.26452 | -63.89247 | 23721 ft | 321 kts | 208° |
| 2026-05-07 21:07 | -41.28448 | -63.90572 | 23721 ft | 321 kts | 208° |
| 2026-05-07 21:07 | -41.30448 | -63.91899 | 23721 ft | 321 kts | 208° |
| 2026-05-07 21:07 | -41.32449 | -63.93230 | 23721 ft | 322 kts | 208° |
| 2026-05-07 21:08 | -41.34451 | -63.94563 | 23721 ft | 322 kts | 208° |
| 2026-05-07 21:08 | -41.36455 | -63.95894 | 23721 ft | 322 kts | 208° |
| 2026-05-07 21:08 | -41.38461 | -63.97233 | 23733 ft | 322 kts | 208° |
| 2026-05-07 21:08 | -41.40467 | -63.98570 | 23735 ft | 322 kts | 208° |
| 2026-05-07 21:09 | -41.42473 | -63.99908 | 23731 ft | 322 kts | 208° |
| 2026-05-07 21:09 | -41.44477 | -64.01248 | 23742 ft | 322 kts | 208° |
| 2026-05-07 21:09 | -41.46482 | -64.02586 | 23743 ft | 322 kts | 207° |
| 2026-05-07 21:09 | -41.48485 | -64.03923 | 23743 ft | 322 kts | 207° |
| 2026-05-07 21:10 | -41.50483 | -64.05260 | 23743 ft | 321 kts | 207° |
| 2026-05-07 21:10 | -41.52457 | -64.06583 | 23742 ft | 322 kts | 207° |
| 2026-05-07 21:10 | -41.54457 | -64.07921 | 23742 ft | 322 kts | 207° |
| 2026-05-07 21:10 | -41.56460 | -64.09263 | 23751 ft | 322 kts | 207° |
| 2026-05-07 21:11 | -41.58462 | -64.10607 | 23751 ft | 322 kts | 207° |
| 2026-05-07 21:11 | -41.60467 | -64.11953 | 23751 ft | 322 kts | 207° |
| 2026-05-07 21:11 | -41.64482 | -64.14651 | 23751 ft | 323 kts | 207° |
| 2026-05-07 21:12 | -41.66491 | -64.16002 | 23751 ft | 323 kts | 207° |
| 2026-05-07 21:12 | -41.68503 | -64.17358 | 23751 ft | 324 kts | 207° |
| 2026-05-07 21:12 | -41.70512 | -64.18711 | 23761 ft | 323 kts | 207° |
| 2026-05-07 21:12 | -41.72525 | -64.20065 | 23760 ft | 324 kts | 207° |
| 2026-05-07 21:13 | -41.74540 | -64.21426 | 23760 ft | 324 kts | 207° |
| 2026-05-07 21:13 | -41.76527 | -64.22769 | 23761 ft | 324 kts | 207° |
| 2026-05-07 21:13 | -41.78547 | -64.24130 | 23761 ft | 325 kts | 207° |
| 2026-05-07 21:13 | -41.80592 | -64.25513 | 23762 ft | 325 kts | 207° |
| 2026-05-07 21:14 | -41.82609 | -64.26879 | 23762 ft | 325 kts | 207° |
| 2026-05-07 21:14 | -41.84604 | -64.28229 | 23770 ft | 325 kts | 207° |
| 2026-05-07 21:14 | -41.86625 | -64.29597 | 23771 ft | 326 kts | 207° |
| 2026-05-07 21:14 | -41.88646 | -64.30968 | 23771 ft | 326 kts | 207° |
| 2026-05-07 21:15 | -41.90673 | -64.32342 | 23771 ft | 326 kts | 207° |
| 2026-05-07 21:15 | -41.92694 | -64.33718 | 23771 ft | 325 kts | 208° |
| 2026-05-07 21:15 | -41.94717 | -64.35090 | 23771 ft | 325 kts | 208° |
| 2026-05-07 21:15 | -41.96738 | -64.36473 | 23772 ft | 326 kts | 207° |
| 2026-05-07 21:16 | -41.98761 | -64.37839 | 23772 ft | 326 kts | 207° |
| 2026-05-07 21:16 | -42.00785 | -64.39210 | 23772 ft | 325 kts | 207° |
| 2026-05-07 21:16 | -42.02800 | -64.40591 | 23779 ft | 325 kts | 208° |
| 2026-05-07 21:16 | -42.04818 | -64.41969 | 23779 ft | 325 kts | 207° |
| 2026-05-07 21:17 | -42.06812 | -64.43326 | 23779 ft | 325 kts | 208° |
| 2026-05-07 21:17 | -42.08832 | -64.44706 | 23779 ft | 326 kts | 208° |
| 2026-05-07 21:17 | -42.10858 | -64.46090 | 23779 ft | 326 kts | 208° |
| 2026-05-07 21:17 | -42.12878 | -64.47473 | 23779 ft | 326 kts | 208° |
| 2026-05-07 21:18 | -42.14900 | -64.48854 | 23779 ft | 325 kts | 208° |
| 2026-05-07 21:18 | -42.16915 | -64.50235 | 23779 ft | 325 kts | 208° |
| 2026-05-07 21:18 | -42.18931 | -64.51618 | 23779 ft | 325 kts | 208° |
| 2026-05-07 21:18 | -42.20947 | -64.52999 | 23779 ft | 325 kts | 208° |
| 2026-05-07 21:19 | -42.22962 | -64.54381 | 23779 ft | 325 kts | 208° |
| 2026-05-07 21:19 | -42.24977 | -64.55764 | 23780 ft | 325 kts | 208° |
| 2026-05-07 21:19 | -42.26990 | -64.57150 | 23780 ft | 324 kts | 208° |
| 2026-05-07 21:19 | -42.28999 | -64.58530 | 23780 ft | 324 kts | 208° |
| 2026-05-07 21:20 | -42.31006 | -64.59912 | 23780 ft | 324 kts | 208° |
| 2026-05-07 21:20 | -42.33016 | -64.61295 | 23780 ft | 324 kts | 208° |
| 2026-05-07 21:20 | -42.35019 | -64.62676 | 23781 ft | 323 kts | 208° |
| 2026-05-07 21:20 | -42.37021 | -64.64058 | 23789 ft | 322 kts | 208° |
| 2026-05-07 21:21 | -42.39019 | -64.65441 | 23789 ft | 322 kts | 208° |
| 2026-05-07 21:21 | -42.40971 | -64.66850 | 23789 ft | 322 kts | 210° |
| 2026-05-07 21:21 | -42.42939 | -64.68294 | 23790 ft | 322 kts | 209° |
| 2026-05-07 21:21 | -42.44921 | -64.69719 | 23790 ft | 322 kts | 209° |
| 2026-05-07 21:22 | -42.46899 | -64.71137 | 23790 ft | 322 kts | 209° |
| 2026-05-07 21:22 | -42.48876 | -64.72562 | 23790 ft | 322 kts | 209° |
| 2026-05-07 21:22 | -42.50850 | -64.73988 | 23787 ft | 321 kts | 209° |
| 2026-05-07 21:22 | -42.52819 | -64.75409 | 23791 ft | 321 kts | 209° |
| 2026-05-07 21:23 | -42.54786 | -64.76831 | 23791 ft | 320 kts | 209° |
| 2026-05-07 21:23 | -42.56751 | -64.78254 | 23789 ft | 320 kts | 209° |
| 2026-05-07 21:23 | -42.58717 | -64.79675 | 23788 ft | 320 kts | 209° |
| 2026-05-07 21:23 | -42.60679 | -64.81095 | 23790 ft | 319 kts | 209° |
| 2026-05-07 21:24 | -42.62637 | -64.82513 | 23790 ft | 319 kts | 209° |
| 2026-05-07 21:24 | -42.64597 | -64.83934 | 23789 ft | 319 kts | 209° |
| 2026-05-07 21:24 | -42.66555 | -64.85356 | 23789 ft | 319 kts | 209° |
| 2026-05-07 21:24 | -42.68509 | -64.86777 | 23790 ft | 319 kts | 209° |
| 2026-05-07 21:25 | -42.70467 | -64.88196 | 23790 ft | 319 kts | 209° |
| 2026-05-07 21:25 | -42.72420 | -64.89618 | 23786 ft | 318 kts | 209° |
| 2026-05-07 21:25 | -42.74376 | -64.91042 | 23785 ft | 318 kts | 209° |
| 2026-05-07 21:25 | -42.76330 | -64.92465 | 23788 ft | 318 kts | 209° |
| 2026-05-07 21:26 | -42.78280 | -64.93886 | 23790 ft | 318 kts | 209° |
| 2026-05-07 21:26 | -42.80232 | -64.95310 | 23790 ft | 318 kts | 209° |
| 2026-05-07 21:26 | -42.82180 | -64.96733 | 23791 ft | 318 kts | 209° |
| 2026-05-07 21:26 | -42.84129 | -64.98155 | 23790 ft | 318 kts | 209° |
| 2026-05-07 21:27 | -42.86077 | -64.99580 | 23789 ft | 318 kts | 209° |
| 2026-05-07 21:27 | -42.88030 | -65.01007 | 23790 ft | 318 kts | 209° |
| 2026-05-07 21:27 | -42.89958 | -65.02418 | 23786 ft | 318 kts | 210° |
| 2026-05-07 21:27 | -42.91901 | -65.03843 | 23796 ft | 318 kts | 210° |
| 2026-05-07 21:28 | -42.93851 | -65.05271 | 23797 ft | 317 kts | 210° |
| 2026-05-07 21:28 | -42.95799 | -65.06702 | 23795 ft | 318 kts | 210° |
| 2026-05-07 21:28 | -42.97743 | -65.08129 | 23808 ft | 317 kts | 210° |
| 2026-05-07 21:28 | -42.99689 | -65.09557 | 23808 ft | 317 kts | 210° |
| 2026-05-07 21:29 | -43.01631 | -65.10986 | 23816 ft | 317 kts | 210° |
| 2026-05-07 21:29 | -43.03577 | -65.12416 | 23815 ft | 317 kts | 210° |
| 2026-05-07 21:29 | -43.05491 | -65.13825 | 23825 ft | 316 kts | 210° |
| 2026-05-07 21:29 | -43.07431 | -65.15257 | 23826 ft | 316 kts | 210° |
| 2026-05-07 21:30 | -43.09369 | -65.16685 | 23832 ft | 316 kts | 210° |
| 2026-05-07 21:30 | -43.11309 | -65.18115 | 23835 ft | 317 kts | 210° |
| 2026-05-07 21:30 | -43.13251 | -65.19549 | 23835 ft | 317 kts | 210° |
| 2026-05-07 21:30 | -43.15195 | -65.20986 | 23834 ft | 317 kts | 210° |
| 2026-05-07 21:31 | -43.17137 | -65.22422 | 23844 ft | 317 kts | 210° |
| 2026-05-07 21:31 | -43.19079 | -65.23860 | 23845 ft | 317 kts | 210° |
| 2026-05-07 21:31 | -43.21011 | -65.25331 | 23846 ft | 317 kts | 212° |
| 2026-05-07 21:31 | -43.22917 | -65.26853 | 23845 ft | 317 kts | 211° |
| 2026-05-07 21:32 | -43.24841 | -65.28336 | 23845 ft | 317 kts | 211° |
| 2026-05-07 21:32 | -43.26740 | -65.29816 | 23844 ft | 317 kts | 211° |
| 2026-05-07 21:32 | -43.28656 | -65.31332 | 23845 ft | 318 kts | 211° |
| 2026-05-07 21:32 | -43.30575 | -65.32849 | 23845 ft | 318 kts | 211° |
| 2026-05-07 21:33 | -43.32494 | -65.34359 | 23846 ft | 318 kts | 211° |
| 2026-05-07 21:33 | -43.34416 | -65.35874 | 23846 ft | 319 kts | 211° |
| 2026-05-07 21:33 | -43.36340 | -65.37393 | 23845 ft | 319 kts | 211° |
| 2026-05-07 21:33 | -43.38262 | -65.38912 | 23846 ft | 319 kts | 211° |
| 2026-05-07 21:34 | -43.39539 | -65.39922 | 23845 ft | 319 kts | 211° |
| 2026-05-07 21:34 | -43.41465 | -65.41445 | 23846 ft | 320 kts | 211° |
| 2026-05-07 21:34 | -43.43395 | -65.42972 | 23846 ft | 320 kts | 211° |
| 2026-05-07 21:34 | -43.45324 | -65.44501 | 23845 ft | 320 kts | 211° |
| 2026-05-07 21:35 | -43.47255 | -65.46032 | 23845 ft | 320 kts | 211° |
| 2026-05-07 21:35 | -43.49183 | -65.47563 | 23846 ft | 320 kts | 211° |
| 2026-05-07 21:35 | -43.51116 | -65.49097 | 23846 ft | 320 kts | 211° |
| 2026-05-07 21:35 | -43.53049 | -65.50630 | 23845 ft | 321 kts | 211° |
| 2026-05-07 21:36 | -43.54983 | -65.52170 | 23846 ft | 321 kts | 211° |
| 2026-05-07 21:36 | -43.56917 | -65.53709 | 23845 ft | 321 kts | 211° |
| 2026-05-07 21:36 | -43.58852 | -65.55249 | 23846 ft | 321 kts | 211° |
| 2026-05-07 21:36 | -43.60788 | -65.56792 | 23846 ft | 322 kts | 211° |
| 2026-05-07 21:37 | -43.62728 | -65.58339 | 23846 ft | 322 kts | 211° |
| 2026-05-07 21:37 | -43.64663 | -65.59884 | 23852 ft | 322 kts | 211° |
| 2026-05-07 21:37 | -43.66580 | -65.61414 | 23854 ft | 322 kts | 211° |
| 2026-05-07 21:37 | -43.68520 | -65.62966 | 23854 ft | 322 kts | 211° |
| 2026-05-07 21:38 | -43.70462 | -65.64519 | 23854 ft | 323 kts | 211° |
| 2026-05-07 21:38 | -43.72408 | -65.66076 | 23852 ft | 323 kts | 211° |
| 2026-05-07 21:38 | -43.74352 | -65.67634 | 23854 ft | 323 kts | 211° |
| 2026-05-07 21:38 | -43.76298 | -65.69195 | 23855 ft | 324 kts | 211° |
| 2026-05-07 21:39 | -43.78247 | -65.70757 | 23854 ft | 324 kts | 211° |
| 2026-05-07 21:39 | -43.80198 | -65.72323 | 23864 ft | 324 kts | 211° |
| 2026-05-07 21:39 | -43.82143 | -65.73889 | 23863 ft | 324 kts | 211° |
| 2026-05-07 21:39 | -43.84096 | -65.75457 | 23864 ft | 324 kts | 211° |
| 2026-05-07 21:40 | -43.86047 | -65.77026 | 23864 ft | 325 kts | 211° |
| 2026-05-07 21:40 | -43.88003 | -65.78604 | 23873 ft | 324 kts | 212° |
| 2026-05-07 21:40 | -43.89956 | -65.80179 | 23872 ft | 324 kts | 211° |
| 2026-05-07 21:40 | -43.91909 | -65.81752 | 23872 ft | 325 kts | 211° |
| 2026-05-07 21:41 | -43.93863 | -65.83330 | 23872 ft | 325 kts | 211° |
| 2026-05-07 21:41 | -43.95815 | -65.84910 | 23872 ft | 325 kts | 212° |
| 2026-05-07 21:41 | -43.97773 | -65.86489 | 23882 ft | 325 kts | 211° |
| 2026-05-07 21:41 | -43.99726 | -65.88064 | 23881 ft | 325 kts | 210° |
| 2026-05-07 21:42 | -44.01709 | -65.89487 | 23881 ft | 325 kts | 208° |
| 2026-05-07 21:42 | -44.03720 | -65.90939 | 23882 ft | 325 kts | 209° |
| 2026-05-07 21:42 | -44.05729 | -65.92406 | 23882 ft | 326 kts | 209° |
| 2026-05-07 21:42 | -44.07744 | -65.93865 | 23891 ft | 328 kts | 208° |
| 2026-05-07 21:43 | -44.09776 | -65.95332 | 23892 ft | 328 kts | 208° |
| 2026-05-07 21:43 | -44.11802 | -65.96803 | 23893 ft | 329 kts | 208° |
| 2026-05-07 21:43 | -44.13832 | -65.98276 | 23894 ft | 329 kts | 208° |
| 2026-05-07 21:43 | -44.15863 | -65.99753 | 23901 ft | 329 kts | 208° |
| 2026-05-07 21:44 | -44.17898 | -66.01232 | 23902 ft | 330 kts | 208° |
| 2026-05-07 21:44 | -44.19934 | -66.02712 | 23903 ft | 329 kts | 208° |
| 2026-05-07 21:44 | -44.21966 | -66.04189 | 23910 ft | 329 kts | 208° |
| 2026-05-07 21:44 | -44.23998 | -66.05671 | 23911 ft | 329 kts | 208° |
| 2026-05-07 21:45 | -44.26033 | -66.07157 | 23911 ft | 329 kts | 208° |
| 2026-05-07 21:45 | -44.28060 | -66.08636 | 23911 ft | 329 kts | 208° |
| 2026-05-07 21:45 | -44.30088 | -66.10116 | 23919 ft | 329 kts | 208° |
| 2026-05-07 21:45 | -44.32089 | -66.11579 | 23920 ft | 328 kts | 208° |
| 2026-05-07 21:46 | -44.34111 | -66.13057 | 23920 ft | 328 kts | 208° |
| 2026-05-07 21:46 | -44.36138 | -66.14542 | 23928 ft | 328 kts | 208° |
| 2026-05-07 21:46 | -44.38157 | -66.16022 | 23928 ft | 328 kts | 208° |
| 2026-05-07 21:46 | -44.40174 | -66.17500 | 23929 ft | 327 kts | 208° |
| 2026-05-07 21:47 | -44.42194 | -66.18981 | 23933 ft | 327 kts | 208° |
| 2026-05-07 21:47 | -44.44207 | -66.20460 | 23938 ft | 326 kts | 208° |
| 2026-05-07 21:47 | -44.46218 | -66.21938 | 23936 ft | 326 kts | 208° |
| 2026-05-07 21:47 | -44.48229 | -66.23416 | 23935 ft | 326 kts | 208° |
| 2026-05-07 21:48 | -44.50231 | -66.24891 | 23946 ft | 325 kts | 208° |
| 2026-05-07 21:48 | -44.52228 | -66.26361 | 23941 ft | 324 kts | 208° |
| 2026-05-07 21:48 | -44.54227 | -66.27836 | 23949 ft | 324 kts | 208° |
| 2026-05-07 21:48 | -44.56222 | -66.29308 | 23949 ft | 324 kts | 208° |
| 2026-05-07 21:49 | -44.58212 | -66.30777 | 23958 ft | 323 kts | 208° |
| 2026-05-07 21:49 | -44.60203 | -66.32248 | 23952 ft | 323 kts | 208° |
| 2026-05-07 21:49 | -44.62188 | -66.33715 | 23954 ft | 322 kts | 208° |
| 2026-05-07 21:49 | -44.64168 | -66.35181 | 23951 ft | 322 kts | 208° |
| 2026-05-07 21:50 | -44.66149 | -66.36647 | 23967 ft | 322 kts | 208° |
| 2026-05-07 21:50 | -44.68125 | -66.38113 | 23967 ft | 321 kts | 208° |
| 2026-05-07 21:50 | -44.70099 | -66.39579 | 23967 ft | 321 kts | 208° |
| 2026-05-07 21:50 | -44.72046 | -66.41023 | 23975 ft | 320 kts | 208° |
| 2026-05-07 21:51 | -44.74012 | -66.42484 | 23975 ft | 320 kts | 208° |
| 2026-05-07 21:51 | -44.75979 | -66.43946 | 23974 ft | 319 kts | 208° |
| 2026-05-07 21:51 | -44.77940 | -66.45405 | 23975 ft | 319 kts | 208° |
| 2026-05-07 21:51 | -44.79900 | -66.46865 | 23984 ft | 318 kts | 208° |
| 2026-05-07 21:52 | -44.81854 | -66.48321 | 23983 ft | 318 kts | 208° |
| 2026-05-07 21:52 | -44.83810 | -66.49781 | 23983 ft | 318 kts | 208° |
| 2026-05-07 21:52 | -44.85761 | -66.51236 | 23984 ft | 317 kts | 208° |
| 2026-05-07 21:52 | -44.87710 | -66.52692 | 23987 ft | 316 kts | 208° |
| 2026-05-07 21:53 | -44.89654 | -66.54147 | 23993 ft | 316 kts | 208° |
| 2026-05-07 21:53 | -44.91599 | -66.55599 | 23993 ft | 316 kts | 208° |
| 2026-05-07 21:53 | -44.93534 | -66.57051 | 23993 ft | 315 kts | 208° |
| 2026-05-07 21:53 | -44.95472 | -66.58501 | 23993 ft | 315 kts | 208° |
| 2026-05-07 21:54 | -44.97409 | -66.59952 | 24002 ft | 314 kts | 208° |
| 2026-05-07 21:54 | -44.99340 | -66.61403 | 24002 ft | 314 kts | 208° |
| 2026-05-07 21:54 | -45.01269 | -66.62851 | 24002 ft | 314 kts | 208° |
| 2026-05-07 21:54 | -45.03199 | -66.64303 | 24002 ft | 314 kts | 208° |
| 2026-05-07 21:55 | -45.05129 | -66.65756 | 24002 ft | 313 kts | 208° |
| 2026-05-07 21:55 | -45.07054 | -66.67204 | 24002 ft | 313 kts | 208° |
| 2026-05-07 21:55 | -45.08975 | -66.68650 | 24011 ft | 313 kts | 208° |
| 2026-05-07 21:55 | -45.10876 | -66.70084 | 23917 ft | 316 kts | 208° |
| 2026-05-07 21:56 | -45.12845 | -66.71573 | 23563 ft | 325 kts | 208° |
| 2026-05-07 21:56 | -45.14830 | -66.73073 | 23191 ft | 320 kts | 208° |
| 2026-05-07 21:56 | -45.16778 | -66.74542 | 22817 ft | 315 kts | 208° |
| 2026-05-07 21:56 | -45.18696 | -66.75992 | 22442 ft | 310 kts | 208° |
| 2026-05-07 21:57 | -45.20589 | -66.77425 | 22067 ft | 307 kts | 208° |
| 2026-05-07 21:57 | -45.22465 | -66.78846 | 21691 ft | 304 kts | 208° |
| 2026-05-07 21:57 | -45.24330 | -66.80261 | 21314 ft | 302 kts | 208° |
| 2026-05-07 21:57 | -45.26183 | -66.81665 | 20940 ft | 301 kts | 209° |
| 2026-05-07 21:58 | -45.28026 | -66.83063 | 20562 ft | 299 kts | 209° |
| 2026-05-07 21:58 | -45.29858 | -66.84457 | 20187 ft | 298 kts | 209° |
| 2026-05-07 21:58 | -45.31688 | -66.85848 | 19811 ft | 297 kts | 209° |
| 2026-05-07 21:58 | -45.33507 | -66.87232 | 19436 ft | 296 kts | 209° |
| 2026-05-07 21:59 | -45.35324 | -66.88615 | 19058 ft | 295 kts | 209° |
| 2026-05-07 21:59 | -45.37131 | -66.89994 | 18686 ft | 295 kts | 210° |
| 2026-05-07 21:59 | -45.38913 | -66.91352 | 18315 ft | 294 kts | 210° |
| 2026-05-07 21:59 | -45.40714 | -66.92726 | 17942 ft | 293 kts | 210° |
| 2026-05-07 22:00 | -45.42514 | -66.94101 | 17567 ft | 293 kts | 210° |
| 2026-05-07 22:00 | -45.44306 | -66.95472 | 17192 ft | 292 kts | 210° |
| 2026-05-07 22:00 | -45.46093 | -66.96838 | 16821 ft | 290 kts | 209° |
| 2026-05-07 22:00 | -45.47871 | -66.98198 | 16446 ft | 289 kts | 209° |
| 2026-05-07 22:01 | -45.49638 | -66.99551 | 16072 ft | 288 kts | 209° |
| 2026-05-07 22:01 | -45.51396 | -67.00900 | 15699 ft | 286 kts | 209° |
| 2026-05-07 22:01 | -45.53147 | -67.02240 | 15330 ft | 286 kts | 209° |
| 2026-05-07 22:01 | -45.54886 | -67.03581 | 14953 ft | 283 kts | 209° |
| 2026-05-07 22:02 | -45.56613 | -67.04899 | 14580 ft | 279 kts | 208° |
| 2026-05-07 22:02 | -45.58340 | -67.06200 | 14208 ft | 279 kts | 209° |
| 2026-05-07 22:02 | -45.60021 | -67.07536 | 13834 ft | 276 kts | 208° |
| 2026-05-07 22:02 | -45.61647 | -67.08800 | 13456 ft | 256 kts | 208° |
| 2026-05-07 22:03 | -45.63176 | -67.09954 | 13076 ft | 241 kts | 207° |
| 2026-05-07 22:03 | -45.64613 | -67.11049 | 12693 ft | 227 kts | 207° |
| 2026-05-07 22:03 | -45.65971 | -67.12101 | 12306 ft | 217 kts | 207° |
| 2026-05-07 22:03 | -45.67274 | -67.13108 | 11921 ft | 209 kts | 207° |
| 2026-05-07 22:04 | -45.68530 | -67.14076 | 11536 ft | 202 kts | 207° |
| 2026-05-07 22:04 | -45.69746 | -67.15015 | 11151 ft | 196 kts | 206° |
| 2026-05-07 22:04 | -45.70913 | -67.15917 | 10670 ft | 189 kts | 206° |
| 2026-05-07 22:04 | -45.72006 | -67.16765 | 10139 ft | 170 kts | 206° |
| 2026-05-07 22:05 | -45.73008 | -67.17536 | 9536 ft | 159 kts | 205° |
| 2026-05-07 22:05 | -45.73966 | -67.18278 | 8893 ft | 154 kts | 206° |
| 2026-05-07 22:05 | -45.74749 | -67.19286 | 8280 ft | 154 kts | 230° |
| 2026-05-07 22:05 | -45.75111 | -67.20735 | 7664 ft | 157 kts | 250° |
| 2026-05-07 22:06 | -45.75297 | -67.22251 | 7043 ft | 153 kts | 248° |
| 2026-05-07 22:06 | -45.75604 | -67.23640 | 6416 ft | 138 kts | 224° |
| 2026-05-07 22:06 | -45.76490 | -67.24274 | 5811 ft | 162 kts | 182° |
| 2026-05-07 22:06 | -45.77647 | -67.23660 | 5264 ft | 199 kts | 147° |
| 2026-05-07 22:07 | -45.78436 | -67.21913 | 4823 ft | 220 kts | 115° |
| 2026-05-07 22:07 | -45.78411 | -67.19709 | 4360 ft | 231 kts | 81° |
| 2026-05-07 22:07 | -45.77534 | -67.17790 | 3903 ft | 241 kts | 47° |
| 2026-05-07 22:07 | -45.76039 | -67.16738 | 3437 ft | 242 kts | 10° |
| 2026-05-07 22:08 | -45.74360 | -67.16555 | 2945 ft | 236 kts | 354° |
| 2026-05-07 22:08 | -45.72873 | -67.17195 | 2491 ft | 220 kts | 317° |
| 2026-05-07 22:08 | -45.71960 | -67.18752 | 2046 ft | 193 kts | 279° |
| 2026-05-07 22:08 | -45.71889 | -67.20429 | 1990 ft | 152 kts | 251° |
| 2026-05-07 22:09 | -45.72112 | -67.21780 | 1979 ft | 133 kts | 229° |
| 2026-05-07 22:09 | -45.72831 | -67.22612 | 1988 ft | 139 kts | 208° |
| 2026-05-07 22:09 | -45.73758 | -67.23416 | 1999 ft | 172 kts | 208° |
| 2026-05-07 22:09 | -45.74755 | -67.24569 | 1923 ft | 193 kts | 230° |
| 2026-05-07 22:10 | -45.75351 | -67.26179 | 1950 ft | 169 kts | 235° |
| 2026-05-07 22:10 | -45.75861 | -67.27622 | 1617 ft | 154 kts | 239° |
| 2026-05-07 22:10 | -45.76226 | -67.29047 | 966 ft | 160 kts | 250° |
| 2026-05-07 22:10 | -45.76402 | -67.30625 | 1121 ft | 160 kts | 260° |
| 2026-05-07 22:11 | -45.76539 | -67.32179 | 1385 ft | 159 kts | 257° |
| 2026-05-07 22:11 | -45.76745 | -67.33716 | 1450 ft | 155 kts | 253° |
| 2026-05-07 22:11 | -45.76996 | -67.35246 | 1331 ft | 157 kts | 252° |
| 2026-05-07 22:11 | -45.77204 | -67.36712 | 1369 ft | 143 kts | 256° |
| 2026-05-07 22:12 | -45.77369 | -67.38120 | 1264 ft | 146 kts | 255° |
| 2026-05-07 22:12 | -45.77557 | -67.39564 | 1097 ft | 146 kts | 254° |
| 2026-05-07 22:12 | -45.77758 | -67.40974 | 879 ft | 138 kts | 254° |
| 2026-05-07 22:12 | -45.77961 | -67.42233 | 609 ft | 119 kts | 255° |
| 2026-05-07 22:13 | -45.78094 | -67.43406 | 450 ft | 123 kts | 252° |
| 2026-05-07 22:13 | -45.78261 | -67.44586 | 264 ft | 117 kts | 255° |
| 2026-05-07 22:13 | -45.78401 | -67.45613 | 209 ft | 92 kts | 259° |
| 2026-05-07 22:13 | -45.78507 | -67.46546 | 315 ft | 115 kts | 259° |
| 2026-05-07 22:14 | -45.78641 | -67.47903 | 649 ft | 151 kts | 259° |
| 2026-05-07 22:14 | -45.79057 | -67.49160 | 1395 ft | 135 kts | 223° |
| 2026-05-07 22:14 | -45.79861 | -67.49787 | 1952 ft | 136 kts | 194° |
| 2026-05-07 22:14 | -45.80816 | -67.49587 | 2144 ft | 155 kts | 155° |
| 2026-05-07 22:15 | -45.81477 | -67.48240 | 2131 ft | 184 kts | 110° |
| 2026-05-07 22:15 | -45.81449 | -67.46305 | 1980 ft | 196 kts | 90° |
| 2026-05-07 22:15 | -45.81219 | -67.44412 | 1929 ft | 192 kts | 84° |
| 2026-05-07 22:15 | -45.80910 | -67.42549 | 1763 ft | 187 kts | 82° |
| 2026-05-07 22:16 | -45.80476 | -67.40879 | 1513 ft | 171 kts | 57° |
| 2026-05-07 22:16 | -45.79548 | -67.39895 | 1103 ft | 162 kts | 13° |
| 2026-05-07 22:16 | -45.78476 | -67.39918 | 977 ft | 152 kts | 325° |
| 2026-05-07 22:16 | -45.77937 | -67.41072 | 808 ft | 148 kts | 277° |
| 2026-05-07 22:17 | -45.77961 | -67.42513 | 576 ft | 142 kts | 255° |
| 2026-05-07 22:17 | -45.78161 | -67.43828 | 452 ft | 127 kts | 251° |
| 2026-05-07 22:17 | -45.78483 | -67.44923 | 287 ft | 114 kts | 248° |
| 2026-05-07 22:17 | -45.78639 | -67.45863 | 219 ft | 54 kts | 256° |
| 2026-05-07 22:18 | -45.78697 | -67.46342 | 219 ft | 50 kts | 261° |
| 2026-05-07 22:18 | -45.78834 | -67.46800 | 220 ft | 14 kts | 178° |
| 2026-05-07 22:18 | -45.78909 | -67.46822 | 220 ft | 10 kts | 222° |
| 2026-05-07 22:19 | -45.78953 | -67.46891 | 220 ft | 2 kts | 226° |
| 2026-05-07 22:19 | -45.78955 | -67.46894 | 220 ft | 0 kts | 226° |